Latest Weather Observations for Gunnedah Airport

IDN60801

Issued at 12:32 pm EST Tuesday 25 April 2017 (issued every 30 minutes, with the page automatically refreshed every 10 minutes)

About weather observations | Map of weather stations | Latest weather observations for NSW | Other Formats
Station Details ID: 055202 Name: GUNNEDAH AIRPORT AWS Lat: -30.95 Lon: 150.25 Height: 262.57 m
Data from the previous 72 hours. | See also: Recent months at Gunnedah Airport
Date/Time
EST
Temp
°C
App
Temp
°C
Dew
Point
°C
Rel
Hum
%
Delta-T
°C
Wind Press
QNH
hPa
Press
MSL
hPa
Rain since
9am
mm
Dir  Spd
km/h
Gust
km/h
Spd
kts
Gust
kts
25/12:30pm 27.9 22.2 9.7 32 10.3 NNW 30 43 16 23 1013.4 1012.7 0.0
25/12:00pm 27.9 23.4 10.1 33 10.1 NNW 24 32 13 17 1014.4 1013.6 0.0
25/11:30am 27.6 23.2 10.3 34 9.8 NNW 24 33 13 18 1015.2 1014.4 0.0
25/11:00am 26.6 22.1 9.9 35 9.4 NNW 24 41 13 22 1015.8 1015.1 0.0
25/10:30am 26.0 22.7 11.0 39 8.6 NNW 19 26 10 14 1016.6 1015.9 0.0
25/10:00am 24.7 22.4 10.6 41 7.9 NW 13 20 7 11 1017.3 1016.6 0.0
25/09:30am 22.9 21.3 10.3 45 7.0 NNE 9 15 5 8 1017.5 1016.8 0.0
25/09:00am 22.4 21.6 10.9 48 6.4 NNE 6 9 3 5 1017.7 1017.0 0.0
25/08:30am 19.9 20.3 11.1 57 4.9 CALM 0 0 0 0 1017.8 1017.1 0.0
25/08:00am 18.6 18.4 11.9 65 3.7 ESE 4 6 2 3 1017.8 1017.1 0.0
25/07:30am 16.4 15.9 12.0 75 2.4 S 6 7 3 4 1017.6 1016.9 0.0
25/07:00am 14.6 13.2 10.8 78 2.0 S 9 11 5 6 1017.4 1016.7 0.0
25/06:30am 14.5 13.2 10.1 75 2.3 S 7 7 4 4 1017.1 1016.4 0.0
25/06:00am 15.0 13.8 10.4 74 2.4 S 7 7 4 4 1016.7 1016.0 0.0
25/05:30am 14.6 13.4 10.2 75 2.3 S 7 9 4 5 1016.6 1015.9 0.0
25/05:00am 14.5 12.9 10.1 75 2.3 S 9 11 5 6 1016.4 1015.7 0.0
25/04:30am 14.4 12.7 9.8 74 2.4 SSE 9 11 5 6 1016.1 1015.4 0.0
25/04:00am 15.1 13.0 9.9 71 2.7 SSE 11 11 6 6 1016.2 1015.5 0.0
25/03:30am 15.0 13.4 10.2 73 2.5 SSE 9 11 5 6 1016.4 1015.7 0.0
25/03:00am 15.0 12.8 9.4 69 2.9 SE 11 11 6 6 1016.4 1015.7 0.0
25/02:30am 16.5 14.7 9.4 63 3.7 ESE 9 11 5 6 1016.8 1016.1 0.0
25/02:00am 17.3 15.7 10.2 63 3.8 SE 9 13 5 7 1017.0 1016.3 0.0
25/01:30am 17.2 15.9 10.1 63 3.8 ESE 7 11 4 6 1017.3 1016.6 0.0
25/01:00am 18.0 16.8 10.4 61 4.1 SE 7 11 4 6 1017.6 1016.9 0.0
25/12:30am 18.2 17.0 10.3 60 4.3 SE 7 7 4 4 1018.0 1017.3 0.0
25/12:00am 17.6 16.5 10.7 64 3.7 S 7 9 4 5 1018.1 1017.4 0.0
 
Date/Time
EST
Temp
°C
App
Temp
°C
Dew
Point
°C
Rel
Hum
%
Delta-T
°C
Wind Press
QNH
hPa
Press
MSL
hPa
Rain since
9am
mm
Dir  Spd
km/h
Gust
km/h
Spd
kts
Gust
kts
24/11:30pm 17.0 15.1 10.4 65 3.6 SSE 11 11 6 6 1018.1 1017.4 0.0
24/11:00pm 18.7 18.8 10.0 57 4.7 CALM 0 0 0 0 1018.4 1017.6 0.0
24/10:30pm 18.7 17.7 10.3 58 4.6 ESE 6 7 3 4 1018.8 1018.1 0.0
24/10:00pm 18.4 17.3 10.5 60 4.3 ESE 7 9 4 5 1019.0 1018.3 0.0
24/09:30pm 18.6 17.6 10.2 58 4.5 E 6 9 3 5 1019.1 1018.4 0.0
24/09:00pm 18.9 18.9 9.9 56 4.8 CALM 0 0 0 0 1019.1 1018.4 0.0
24/08:30pm 19.3 19.4 10.0 55 5.0 CALM 0 0 0 0 1018.9 1018.2 0.0
24/08:00pm 20.1 20.2 10.2 53 5.4 CALM 0 0 0 0 1018.7 1017.9 0.0
24/07:30pm 20.5 19.3 9.4 49 6.0 ENE 6 7 3 4 1018.6 1017.8 0.0
24/07:00pm 21.1 19.7 9.7 48 6.2 S 7 9 4 5 1018.4 1017.6 0.0
24/06:30pm 21.7 20.2 8.6 43 7.0 SSW 6 7 3 4 1018.3 1017.5 0.0
24/06:00pm 22.2 22.0 9.0 43 7.1 CALM 0 0 0 0 1017.9 1017.2 0.0
24/05:30pm 22.9 22.5 8.2 39 7.9 CALM 0 0 0 0 1017.7 1017.0 0.0
24/05:00pm 24.7 23.9 6.4 31 9.6 CALM 0 0 0 0 1017.6 1016.9 0.0
24/04:30pm 25.4 23.9 6.6 30 9.9 W 4 9 2 5 1017.5 1016.8 0.0
24/04:00pm 26.2 24.7 6.8 29 10.3 NW 4 9 2 5 1017.4 1016.7 0.0
24/03:30pm 26.7 24.3 7.2 29 10.5 NW 9 17 5 9 1017.6 1016.9 0.0
24/03:00pm 26.9 24.6 7.4 29 10.5 WNW 9 15 5 8 1017.8 1017.1 0.0
24/02:30pm 26.6 24.0 7.6 30 10.3 W 11 15 6 8 1018.0 1017.3 0.0
24/02:00pm 26.3 24.6 8.3 32 9.8 SW 7 11 4 6 1018.3 1017.5 0.0
24/01:30pm 26.2 24.1 8.2 32 9.8 WNW 9 15 5 8 1018.7 1017.9 0.0
24/01:00pm 25.8 23.1 8.8 34 9.3 NW 13 20 7 11 1019.0 1018.3 0.0
24/12:30pm 25.9 23.8 8.4 33 9.5 SSW 9 13 5 7 1019.6 1018.9 0.0
24/12:00pm 25.1 23.6 8.6 35 9.0 NW 6 13 3 7 1020.1 1019.4 0.0
24/11:30am 25.2 23.3 9.1 36 8.9 NNE 9 17 5 9 1020.6 1019.9 0.0
24/11:00am 24.6 23.1 10.5 41 7.9 NE 9 13 5 7 1021.3 1020.6 0.0
24/10:30am 23.7 22.7 11.1 45 7.1 E 7 17 4 9 1021.7 1021.0 0.0
24/10:00am 22.1 20.4 11.2 50 6.1 NE 11 15 6 8 1022.1 1021.5 0.0
24/09:30am 20.9 19.9 12.3 58 4.9 ENE 9 13 5 7 1022.4 1021.7 0.0
24/09:00am 19.2 17.6 11.5 61 4.3 ESE 11 15 6 8 1022.5 1021.8 0.0
24/08:30am 16.8 14.4 10.2 65 3.5 SE 13 19 7 10 1022.5 1021.8 0.0
24/08:00am 14.7 12.1 9.5 71 2.7 SE 13 15 7 8 1022.4 1021.7 0.0
24/07:30am 14.3 11.7 9.3 72 2.6 ESE 13 17 7 9 1022.1 1021.5 0.0
24/07:00am 13.3 10.7 9.4 77 2.0 ESE 13 17 7 9 1021.9 1021.2 0.0
24/06:30am 11.7 9.0 8.9 83 1.4 SE 13 15 7 8 1021.6 1020.9 0.0
24/06:00am 11.5 8.7 8.7 83 1.4 SE 13 17 7 9 1021.4 1020.7 0.0
24/05:30am 11.4 8.3 9.0 85 1.2 SE 15 17 8 9 1021.2 1020.5 0.0
24/05:00am 11.0 8.6 8.6 85 1.2 SE 11 13 6 7 1021.1 1020.4 0.0
24/04:30am 11.2 8.8 8.6 84 1.3 ESE 11 15 6 8 1021.0 1020.3 0.0
24/04:00am 11.8 9.4 8.5 80 1.6 ESE 11 13 6 7 1020.8 1020.1 0.0
24/03:30am 12.2 9.4 8.7 79 1.8 SE 13 17 7 9 1020.7 1020.0 0.0
24/03:00am 12.4 9.1 9.4 82 1.5 SE 17 17 9 9 1020.9 1020.2 0.0
24/02:30am 11.6 10.0 8.6 82 1.5 SSE 7 11 4 6 1021.1 1020.4 0.0
24/02:00am 11.4 8.5 8.3 81 1.5 SE 13 15 7 8 1021.2 1020.5 0.0
24/01:30am 11.3 10.8 8.0 80 1.6 CALM 0 0 0 0 1021.4 1020.7 0.0
24/01:00am 11.7 9.6 8.2 79 1.7 SE 9 11 5 6 1021.7 1021.0 0.0
24/12:30am 13.1 11.6 9.0 76 2.1 ESE 7 9 4 5 1022.0 1021.3 0.0
24/12:00am 12.0 10.3 8.3 78 1.8 ESE 7 9 4 5 1022.1 1021.5 0.0
 
Date/Time
EST
Temp
°C
App
Temp
°C
Dew
Point
°C
Rel
Hum
%
Delta-T
°C
Wind Press
QNH
hPa
Press
MSL
hPa
Rain since
9am
mm
Dir  Spd
km/h
Gust
km/h
Spd
kts
Gust
kts
23/11:30pm 12.8 10.4 8.5 75 2.2 E 11 13 6 7 1022.3 1021.6 0.0
23/11:00pm 13.1 10.9 8.0 71 2.5 ESE 9 11 5 6 1022.3 1021.6 0.0
23/10:30pm 15.4 13.9 10.4 72 2.7 SSE 9 11 5 6 1022.3 1021.6 0.0
23/10:00pm 13.1 11.4 8.2 72 2.5 SE 7 9 4 5 1022.4 1021.7 0.0
23/09:30pm 14.0 12.1 9.0 72 2.6 S 9 9 5 5 1022.4 1021.7 0.0
23/09:00pm 13.9 13.5 8.1 68 2.9 CALM 0 0 0 0 1022.5 1021.8 0.0
23/08:30pm 14.1 13.9 9.1 72 2.6 CALM 0 0 0 0 1022.3 1021.6 0.0
23/08:00pm 15.0 13.9 10.0 72 2.6 WSW 6 7 3 4 1021.9 1021.2 0.0
23/07:30pm 14.3 12.8 9.3 72 2.6 S 7 9 4 5 1021.7 1021.0 0.0
23/07:00pm 16.5 15.4 9.9 65 3.5 E 6 9 3 5 1021.3 1020.6 0.0
23/06:30pm 18.8 19.0 10.4 58 4.6 CALM 0 0 0 0 1021.0 1020.3 0.0
23/06:00pm 20.2 20.0 10.3 53 5.4 SW 2 6 1 3 1020.7 1020.0 0.0
23/05:30pm 22.0 21.3 9.9 46 6.6 NE 4 6 2 3 1020.4 1019.7 0.0
23/05:00pm 24.0 22.6 9.6 40 7.9 NE 7 9 4 5 1020.2 1019.5 0.0
23/04:30pm 24.9 23.0 9.2 37 8.6 E 9 11 5 6 1020.1 1019.4 0.0
23/04:00pm 23.6 21.8 9.6 41 7.7 SSE 9 11 5 6 1020.1 1019.4 0.0
23/03:30pm 25.8 23.1 8.8 34 9.3 E 13 17 7 9 1020.0 1019.3 0.0
23/03:00pm 25.7 23.8 9.1 35 9.1 E 9 17 5 9 1020.2 1019.5 0.0
23/02:30pm 24.0 21.9 9.9 41 7.8 ESE 11 17 6 9 1020.4 1019.7 0.0
23/02:00pm 26.8 24.8 8.7 32 9.9 SSW 9 15 5 8 1020.6 1019.9 0.0
23/01:30pm 25.2 22.6 9.5 37 8.7 NNE 13 17 7 9 1020.9 1020.2 0.0
23/01:00pm 24.0 22.8 9.6 40 7.9 SE 6 7 3 4 1021.4 1020.7 0.0
23/12:30pm 24.0 22.2 10.7 43 7.5 SW 11 15 6 8 1021.9 1021.2 0.0
23/12:00pm 25.1 24.3 11.6 42 7.7 W 7 11 4 6 1022.4 1021.7 0.0
23/11:30am 25.2 23.6 11.4 42 7.9 WNW 11 20 6 11 1023.0 1022.3 0.0
23/11:00am 24.2 23.0 12.8 49 6.6 WNW 11 19 6 10 1023.5 1022.8 0.0
23/10:30am 22.9 21.9 12.2 51 6.1 NW 9 13 5 7 1024.0 1023.3 0.0
23/10:00am 22.3 21.3 12.3 53 5.7 NW 9 13 5 7 1024.4 1023.7 0.0
23/09:30am 20.7 20.2 12.7 60 4.6 ENE 7 13 4 7 1024.7 1024.0 0.0
23/09:00am 19.8 19.0 13.0 65 3.9 ESE 9 13 5 7 1024.8 1024.1 0.0
23/08:30am 18.7 18.4 13.3 71 3.1 E 7 9 4 5 1024.8 1024.1 0.0
23/08:00am 17.2 16.7 13.7 80 2.0 E 9 13 5 7 1024.6 1023.9 0.0
23/07:30am 14.7 15.0 13.4 92 0.7 ESE 4 9 2 5 1024.4 1023.7 0.0
23/07:00am 10.9 10.8 9.5 91 0.7 CALM 0 0 0 0 1023.9 1023.2 0.0
23/06:30am 11.3 11.3 9.9 91 0.7 CALM 0 0 0 0 1023.8 1023.1 0.0
23/06:00am 12.4 12.7 11.0 91 0.7 CALM 0 0 0 0 1023.4 1022.7 0.0
23/05:30am 13.6 14.1 11.7 88 1.0 CALM 0 0 0 0 1023.1 1022.4 0.0
23/05:00am 14.7 15.5 12.6 87 1.2 CALM 0 0 0 0 1022.8 1022.1 0.0
23/04:30am 14.9 14.2 12.0 83 1.6 SE 7 9 4 5 1022.5 1021.8 0.0
23/04:00am 15.6 15.2 12.9 84 1.5 SE 7 9 4 5 1022.4 1021.7 0.0
23/03:30am 15.8 15.0 12.9 83 1.6 SSE 9 11 5 6 1022.4 1021.7 0.0
23/03:00am 16.1 14.6 13.2 83 1.6 SE 13 15 7 8 1022.4 1021.7 0.0
23/02:30am 16.5 15.3 12.8 79 2.1 SSE 11 15 6 8 1022.6 1021.9 0.0
23/02:00am 16.7 16.2 12.7 77 2.2 S 7 11 4 6 1022.7 1022.0 0.0
23/01:30am 16.6 15.2 13.5 82 1.8 S 13 17 7 9 1022.9 1022.2 0.0
23/01:00am 16.0 15.3 13.3 84 1.5 SE 9 11 5 6 1023.3 1022.6 0.0
23/12:30am 15.6 15.2 12.9 84 1.5 SE 7 9 4 5 1023.5 1022.8 0.0
23/12:00am 15.7 15.2 12.8 83 1.6 E 7 9 4 5 1023.5 1022.8 0.0
 
Date/Time
EST
Temp
°C
App
Temp
°C
Dew
Point
°C
Rel
Hum
%
Delta-T
°C
Wind Press
QNH
hPa
Press
MSL
hPa
Rain since
9am
mm
Dir  Spd
km/h
Gust
km/h
Spd
kts
Gust
kts
22/11:30pm 15.5 16.0 12.8 84 1.5 E 2 6 1 3 1023.5 1022.8 0.0
22/11:00pm 15.7 15.4 12.6 82 1.7 E 6 7 3 4 1023.6 1022.9 0.0
22/10:30pm 16.0 15.6 12.9 82 1.7 E 7 7 4 4 1023.9 1023.2 0.0
22/10:00pm 16.3 16.0 13.4 83 1.6 ESE 7 11 4 6 1024.0 1023.3 0.0
22/09:30pm 16.5 15.9 13.4 82 1.8 SE 9 11 5 6 1024.2 1023.5 0.0
22/09:00pm 16.9 16.3 13.6 81 1.9 ESE 9 13 5 7 1024.1 1023.4 0.0
22/08:30pm 16.9 16.6 13.4 80 2.0 E 7 11 4 6 1023.9 1023.2 0.0
22/08:00pm 16.9 15.9 13.4 80 2.0 SE 11 13 6 7 1023.8 1023.1 0.0
22/07:30pm 17.4 16.0 13.3 77 2.3 SE 13 17 7 9 1023.6 1022.9 0.0
22/07:00pm 17.7 17.4 12.6 72 2.9 SSE 6 13 3 7 1023.5 1022.8 0.0
22/06:30pm 17.9 15.4 13.4 75 2.6 S 19 24 10 13 1023.2 1022.5 0.0
22/06:00pm 17.9 15.8 13.6 76 2.5 SSE 17 24 9 13 1023.1 1022.4 0.0
22/05:30pm 17.8 15.7 13.7 77 2.4 S 17 24 9 13 1023.0 1022.3 0.0
22/05:00pm 18.0 15.5 14.1 78 2.3 S 20 28 11 15 1022.5 1021.8 0.0
22/04:30pm 18.7 14.4 13.3 71 3.1 S 28 35 15 19 1022.3 1021.6 0.0
22/04:22pm 20.7 16.6 11.6 56 5.1 S 24 35 13 19 1022.0 1021.3 0.0
22/04:00pm 22.1 20.6 10.6 48 6.4 SSW 9 15 5 8 1022.5 1021.8 0.0
22/03:30pm 22.0 20.8 9.5 45 6.8 ESE 6 7 3 4 1022.3 1021.6 0.0
22/03:00pm 22.4 20.1 8.9 42 7.3 ESE 11 13 6 7 1022.3 1021.6 0.0
22/02:30pm 22.8 20.4 8.5 40 7.7 ESE 11 13 6 7 1022.5 1021.8 0.0
22/02:00pm 23.3 20.8 8.2 38 8.1 ESE 11 13 6 7 1022.6 1021.9 0.0
22/01:30pm 23.2 20.3 8.1 38 8.1 ESE 13 17 7 9 1022.7 1022.0 0.0
22/01:00pm 23.6 21.1 8.1 37 8.3 ESE 11 19 6 10 1023.1 1022.4 0.0

Other Formats:

Comma delimited format used in spreadsheet applications
http://www.bom.gov.au/fwo/IDN60801/IDN60801.95740.axf

JavaScript Object Notation format (JSON) in row-major order
http://www.bom.gov.au/fwo/IDN60801/IDN60801.95740.json